Time;durP1;ratioP1;P1;durP2;ratioP2;P2;SDS_P1;SDS_P2;PMS_P1;PMS_P2;Temp;Humidity;BMP_temperature;BMP_pressure;BME280_temperature;BME280_humidity;BME280_pressure;Samples;Min_cycle;Max_cycle;Signal;HPM_P1;HPM_P2
2022/01/16 00:01:02;;;;;;;22.00;8.82;;;;;;;0.76;84.04;101917.19;7398807;19;20019;-65
2022/01/16 00:06:16;;;;;;;21.73;7.07;;;;;;;0.68;84.29;101910.84;7398313;19;20025;-64
2022/01/16 00:08:44;;;;;;;23.48;8.82;;;;;;;0.63;84.54;101910.69;7398807;19;20018;-64
2022/01/16 00:11:13;;;;;;;28.00;8.40;;;;;;;0.60;84.59;101909.69;7398283;19;20386;-65
2022/01/16 00:13:41;;;;;;;24.50;8.68;;;;;;;0.55;84.56;101901.75;7397900;19;20435;-65
2022/01/16 00:16:13;;;;;;;23.17;7.93;;;;;;;0.51;84.56;101897.31;7397103;19;20348;-64
2022/01/16 00:18:49;;;;;;;20.80;8.20;;;;;;;0.46;84.76;101912.59;7398463;19;20022;-63
2022/01/16 00:21:21;;;;;;;33.88;11.90;;;;;;;0.41;84.85;101902.94;7398045;19;20036;-64
2022/01/16 00:23:49;;;;;;;21.23;8.63;;;;;;;0.37;84.66;101872.63;7398279;19;20017;-64
2022/01/16 00:26:18;;;;;;;24.27;7.93;;;;;;;0.33;85.00;101879.41;7397101;19;20019;-64
2022/01/16 00:28:47;;;;;;;20.05;7.53;;;;;;;0.29;85.06;101887.84;7396122;19;20032;-64
2022/01/16 00:31:15;;;;;;;28.80;9.43;;;;;;;0.23;85.10;101903.97;7397247;19;20025;-64
2022/01/16 00:33:44;;;;;;;17.25;6.57;;;;;;;0.20;85.12;101914.16;7397092;19;20382;-64
2022/01/16 00:36:17;;;;;;;28.60;8.15;;;;;;;0.15;85.20;101911.44;7396409;19;20475;-64
2022/01/16 00:38:48;;;;;;;22.60;8.32;;;;;;;0.11;85.26;101906.06;7397800;19;20045;-64
2022/01/16 00:41:18;;;;;;;25.33;7.97;;;;;;;0.07;85.19;101904.19;7397822;19;20010;-64
2022/01/16 00:43:47;;;;;;;27.08;8.50;;;;;;;0.04;85.42;101896.31;7397461;19;20019;-64
2022/01/16 00:46:16;;;;;;;27.63;8.98;;;;;;;-0.02;85.58;101881.47;7396557;19;20018;-64
2022/01/16 00:48:44;;;;;;;18.42;8.07;;;;;;;-0.05;85.39;101861.59;7397079;19;20042;-64
2022/01/16 00:51:13;;;;;;;22.33;8.15;;;;;;;-0.10;85.67;101828.69;7397018;19;20014;-64
2022/01/16 00:53:43;;;;;;;25.65;8.25;;;;;;;-0.13;85.55;101851.78;7396934;19;20018;-64
2022/01/16 00:56:14;;;;;;;28.10;8.25;;;;;;;-0.22;85.64;101850.59;7396254;19;20349;-65
2022/01/16 00:58:43;;;;;;;27.25;7.43;;;;;;;-0.22;85.92;101871.22;7397217;19;20096;-64
2022/01/16 01:01:12;;;;;;;26.85;7.45;;;;;;;-0.25;85.97;101865.06;7396616;19;20014;-64
2022/01/16 01:03:40;;;;;;;23.95;8.10;;;;;;;-0.35;86.09;101866.41;7394930;19;20032;-64
2022/01/16 01:06:09;;;;;;;27.20;8.82;;;;;;;-0.30;86.01;101861.41;7395988;19;20014;-64
2022/01/16 01:08:37;;;;;;;27.42;8.95;;;;;;;-0.35;86.20;101875.00;7396409;19;20014;-65
2022/01/16 01:11:10;;;;;;;23.33;7.88;;;;;;;-0.47;86.33;101840.09;7396113;19;20407;-65
2022/01/16 01:16:22;;;;;;;20.02;7.85;;;;;;;-0.44;86.32;101827.31;7395687;19;20032;-64
2022/01/16 01:18:50;;;;;;;28.08;8.43;;;;;;;-0.47;86.21;101840.09;7395801;19;20379;-65
2022/01/16 01:21:27;;;;;;;23.83;8.88;;;;;;;-0.51;86.56;101834.81;7396049;19;20014;-65
2022/01/16 01:23:57;;;;;;;23.23;9.10;;;;;;;-0.53;86.47;101840.72;7394621;19;20032;-65
2022/01/16 01:26:30;;;;;;;24.05;8.25;;;;;;;-0.58;86.54;101827.66;7395587;19;20052;-65
2022/01/16 01:29:01;;;;;;;21.73;8.50;;;;;;;-0.63;86.59;101834.31;7396238;19;20014;-65
2022/01/16 01:31:30;;;;;;;22.70;7.88;;;;;;;-0.62;86.93;101842.94;7395346;19;20494;-65
2022/01/16 01:33:59;;;;;;;32.50;9.52;;;;;;;-0.63;86.95;101847.22;7395618;19;20022;-64
2022/01/16 01:36:27;;;;;;;23.23;7.93;;;;;;;-0.76;86.97;101809.72;7394424;19;20480;-65
2022/01/16 01:38:55;;;;;;;23.63;8.23;;;;;;;-0.68;86.86;101835.84;7395492;19;20015;-65
2022/01/16 01:41:25;;;;;;;24.20;7.53;;;;;;;-0.70;86.98;101816.84;7395383;19;20014;-65
2022/01/16 01:51:58;;;;;;;18.73;7.35;;;;;;;-0.81;87.28;101715.88;7395739;19;20100;-65
2022/01/16 01:54:28;;;;;;;27.13;8.13;;;;;;;-0.84;87.35;101705.47;7394688;19;20479;-65
2022/01/16 01:56:58;;;;;;;27.55;8.35;;;;;;;-0.87;87.25;101736.28;7397632;19;20030;-65
2022/01/16 01:59:26;;;;;;;27.45;9.23;;;;;;;-0.91;87.55;101735.25;7402585;19;20034;-65
2022/01/16 02:01:57;;;;;;;20.08;8.32;;;;;;;-0.93;87.36;101738.59;7402250;19;20015;-65
2022/01/16 02:04:25;;;;;;;27.42;8.68;;;;;;;-0.95;87.47;101761.69;7402811;19;20037;-65
2022/01/16 02:06:53;;;;;;;27.95;9.32;;;;;;;-0.98;87.52;101757.28;7400641;19;20030;-65
2022/01/16 02:09:23;;;;;;;26.38;7.82;;;;;;;-1.00;87.63;101764.09;7402262;19;20041;-65
2022/01/16 02:11:53;;;;;;;26.55;7.82;;;;;;;-1.02;87.88;101747.69;7401805;19;20508;-65
2022/01/16 02:14:29;;;;;;;22.50;7.70;;;;;;;-1.03;87.66;101751.06;7404237;19;20015;-65
2022/01/16 02:28:04;;;;;;;19.50;7.75;;;;;;;-1.16;88.11;101723.06;7399743;19;20036;-64
2022/01/16 02:36:06;;;;;;;27.25;8.90;;;;;;;-1.23;88.26;101727.03;7394923;19;20026;-64
2022/01/16 02:38:37;;;;;;;25.15;10.48;;;;;;;-1.25;88.44;101735.53;7401910;19;20027;-63
2022/01/16 02:41:05;;;;;;;22.63;8.23;;;;;;;-1.26;88.58;101737.22;7401802;19;20015;-64
2022/01/16 02:43:35;;;;;;;23.20;7.32;;;;;;;-1.27;88.47;101725.16;7399738;19;20006;-65
2022/01/16 02:48:54;;;;;;;22.35;7.65;;;;;;;-1.30;88.50;101732.78;7397758;19;20010;-64
2022/01/16 02:51:25;;;;;;;25.58;8.25;;;;;;;-1.32;88.56;101729.25;7401058;19;20014;-63
2022/01/16 02:53:56;;;;;;;23.17;7.97;;;;;;;-1.34;88.68;101723.13;7401112;19;20015;-64
2022/01/16 02:56:24;;;;;;;28.90;8.90;;;;;;;-1.34;88.92;101717.97;7399541;19;20527;-64
2022/01/16 02:59:00;;;;;;;23.70;9.73;;;;;;;-1.36;88.92;101719.63;7400765;19;20022;-64
2022/01/16 03:01:28;;;;;;;27.88;8.48;;;;;;;-1.38;88.93;101721.25;7400358;19;20013;-65
2022/01/16 03:03:56;;;;;;;28.35;7.95;;;;;;;-1.40;88.93;101713.47;7398488;19;20022;-65
2022/01/16 03:06:29;;;;;;;21.83;7.15;;;;;;;-1.42;89.12;101693.63;7399532;19;20029;-65
2022/01/16 03:09:01;;;;;;;22.88;8.25;;;;;;;-1.44;89.16;101693.56;7397991;19;20026;-65
2022/01/16 03:11:39;;;;;;;26.52;8.48;;;;;;;-1.45;89.19;101688.31;7400574;19;20019;-65
2022/01/16 03:14:11;;;;;;;21.67;8.15;;;;;;;-1.48;89.23;101679.69;7400665;19;20025;-63
2022/01/16 03:16:42;;;;;;;25.17;8.23;;;;;;;-1.50;89.06;101673.56;7398683;19;20503;-65
2022/01/16 03:21:57;;;;;;;25.73;7.63;;;;;;;-1.52;89.45;101667.47;7400148;19;20077;-63
2022/01/16 03:24:31;;;;;;;23.45;7.25;;;;;;;-1.54;89.45;101653.69;7397225;19;20382;-63
2022/01/16 03:27:02;;;;;;;27.33;8.27;;;;;;;-1.54;89.59;101657.94;7398123;19;20010;-65
2022/01/16 03:29:31;;;;;;;26.85;8.98;;;;;;;-1.56;89.34;101652.72;7399438;19;20355;-64
2022/01/16 03:32:01;;;;;;;29.17;8.52;;;;;;;-1.57;89.69;101653.53;7399684;19;20107;-64
2022/01/16 03:34:29;;;;;;;24.50;8.32;;;;;;;-1.57;89.55;101647.50;7399578;19;20018;-64
2022/01/16 03:36:58;;;;;;;34.05;8.55;;;;;;;-1.58;89.49;101641.50;7398389;19;20025;-64
2022/01/16 03:39:28;;;;;;;29.83;8.50;;;;;;;-1.59;89.73;101643.97;7399528;19;20014;-64
2022/01/16 03:41:59;;;;;;;30.10;9.05;;;;;;;-1.60;89.89;101643.13;7399767;19;20014;-64
2022/01/16 03:44:27;;;;;;;26.13;8.20;;;;;;;-1.61;89.80;101632.75;7397117;19;20372;-64
2022/01/16 03:46:55;;;;;;;25.50;8.27;;;;;;;-1.61;89.92;101625.91;7399340;19;20036;-64
2022/01/16 03:49:26;;;;;;;26.85;9.27;;;;;;;-1.61;89.99;101625.03;7401486;19;20044;-64
2022/01/16 03:51:56;;;;;;;22.85;7.45;;;;;;;-1.72;90.01;101602.31;7400407;19;20385;-64
2022/01/16 03:54:30;;;;;;;25.38;9.48;;;;;;;-1.63;89.87;101614.69;7401468;19;20022;-64
2022/01/16 03:56:59;;;;;;;34.20;9.55;;;;;;;-1.64;90.23;101618.06;7397726;19;20018;-64
2022/01/16 03:59:28;;;;;;;30.15;7.70;;;;;;;-1.64;89.94;101613.78;7398502;19;20035;-63
2022/01/16 04:01:56;;;;;;;24.02;8.52;;;;;;;-1.69;90.03;101594.72;7399011;19;20025;-64
2022/01/16 04:04:25;;;;;;;28.42;8.38;;;;;;;-1.65;90.29;101593.16;7396674;19;20011;-63
2022/01/16 04:06:53;;;;;;;32.33;8.80;;;;;;;-1.65;90.04;101582.84;7397354;19;20052;-63
2022/01/16 04:09:21;;;;;;;23.92;8.27;;;;;;;-1.66;90.40;101575.94;7398380;19;20011;-64
2022/01/16 04:11:55;;;;;;;29.70;9.32;;;;;;;-1.66;90.38;101573.38;7397927;19;20373;-64
2022/01/16 04:15:31;;;;;;;28.55;9.35;;;;;;;-1.67;90.30;101569.03;7398330;19;20077;-64
2022/01/16 04:17:14;;;;;;;30.88;8.50;;;;;;;-1.68;90.60;101557.88;7396170;19;20411;-64
2022/01/16 04:19:42;;;;;;;25.08;8.93;;;;;;;-1.68;90.63;101556.97;7396650;19;20487;-64
2022/01/16 04:22:10;;;;;;;28.25;8.95;;;;;;;-1.69;90.39;101555.25;7397989;19;20014;-64
2022/01/16 04:24:39;;;;;;;33.15;9.13;;;;;;;-1.71;90.53;101541.44;7395896;19;20040;-64
2022/01/16 04:27:11;;;;;;;31.98;10.82;;;;;;;-1.70;90.45;101545.78;7396144;19;20018;-64
2022/01/16 04:29:39;;;;;;;22.02;10.02;;;;;;;-1.70;90.91;101550.91;7398282;19;20044;-64
2022/01/16 04:32:08;;;;;;;33.15;10.98;;;;;;;-1.71;90.86;101546.56;7397698;19;20048;-63
2022/01/16 04:34:37;;;;;;;27.10;10.68;;;;;;;-1.72;90.62;101540.56;7397164;19;20358;-64
2022/01/16 04:37:06;;;;;;;25.17;10.93;;;;;;;-1.72;90.85;101538.00;7396157;19;20026;-64
2022/01/16 04:39:36;;;;;;;33.85;11.38;;;;;;;-1.72;90.77;101529.38;7398169;19;20019;-63
2022/01/16 04:44:49;;;;;;;34.75;12.00;;;;;;;-1.73;90.78;101525.94;7395379;19;20006;-63
2022/01/16 04:47:18;;;;;;;25.70;11.35;;;;;;;-1.73;90.79;101531.09;7396043;19;20023;-63
2022/01/16 04:49:46;;;;;;;25.33;10.57;;;;;;;-1.74;91.05;101524.19;7397074;19;20048;-64
2022/01/16 04:52:14;;;;;;;27.83;11.15;;;;;;;-1.75;90.83;101524.13;7397020;19;20037;-63
2022/01/16 04:54:42;;;;;;;25.20;11.10;;;;;;;-1.76;90.88;101527.50;7397031;19;20006;-63
2022/01/16 04:57:13;;;;;;;27.85;12.65;;;;;;;-1.75;91.13;101524.13;7395610;19;20040;-64
2022/01/16 04:59:42;;;;;;;37.17;15.10;;;;;;;-1.77;90.98;101520.59;7397106;19;20014;-63
2022/01/16 05:02:13;;;;;;;32.63;14.02;;;;;;;-1.83;91.19;101504.09;7396731;19;20358;-64
2022/01/16 05:04:41;;;;;;;32.15;14.43;;;;;;;-1.85;91.23;101498.00;7395561;19;20014;-64
2022/01/16 05:07:09;;;;;;;36.67;14.90;;;;;;;-1.77;91.31;101511.16;7394939;19;20479;-64
2022/01/16 05:09:37;;;;;;;32.38;15.70;;;;;;;-1.78;91.41;101512.00;7396420;19;20018;-64
2022/01/16 05:12:11;;;;;;;37.95;17.15;;;;;;;-1.79;91.26;101515.41;7396387;19;20036;-64
2022/01/16 05:17:23;;;;;;;33.63;17.58;;;;;;;-1.77;91.48;101500.00;7395062;19;20042;-64
2022/01/16 05:19:51;;;;;;;29.38;15.80;;;;;;;-1.77;91.50;101497.44;7396364;19;20037;-66
2022/01/16 05:22:19;;;;;;;38.70;18.65;;;;;;;-1.79;91.33;101484.53;7396130;19;20046;-63
2022/01/16 05:24:47;;;;;;;39.25;19.13;;;;;;;-1.78;91.40;101486.28;7394464;19;20018;-66
2022/01/16 05:27:16;;;;;;;37.15;19.15;;;;;;;-1.78;91.65;101480.25;7394036;19;20034;-64
2022/01/16 05:29:44;;;;;;;39.72;20.80;;;;;;;-1.79;91.51;101474.22;7396176;19;20014;-65
2022/01/16 05:32:15;;;;;;;37.88;19.83;;;;;;;-1.78;91.58;101464.81;7393262;19;20483;-64
2022/01/16 05:34:46;;;;;;;43.25;22.10;;;;;;;-1.78;91.73;101464.81;7395836;19;20015;-64
2022/01/16 05:37:14;;;;;;;40.58;23.25;;;;;;;-1.79;91.81;101458.78;7394499;19;20029;-65
2022/01/16 05:39:44;;;;;;;44.30;22.55;;;;;;;-1.78;91.97;101475.09;7395367;19;20037;-65
2022/01/16 05:42:14;;;;;;;42.15;23.75;;;;;;;-1.77;91.83;101466.56;7395218;19;20015;-64
2022/01/16 05:44:42;;;;;;;43.15;23.67;;;;;;;-1.78;91.97;101463.13;7393549;19;20334;-65
2022/01/16 05:47:12;;;;;;;41.58;22.45;;;;;;;-1.77;92.19;101451.13;7394059;19;20019;-65
2022/01/16 05:49:42;;;;;;;44.67;24.52;;;;;;;-1.76;92.15;101445.19;7395675;19;20017;-65
2022/01/16 05:52:14;;;;;;;52.67;25.25;;;;;;;-1.76;92.41;101442.59;7395143;19;20011;-65
2022/01/16 05:54:43;;;;;;;50.30;26.88;;;;;;;-1.76;92.52;101438.31;7395573;19;20017;-65
2022/01/16 05:57:12;;;;;;;50.40;27.85;;;;;;;-1.75;92.45;101441.78;7393712;19;20027;-64
2022/01/16 05:59:40;;;;;;;45.03;26.35;;;;;;;-1.73;92.38;101450.44;7395034;19;20015;-64
2022/01/16 06:02:08;;;;;;;46.53;24.48;;;;;;;-1.73;92.70;101446.19;7394900;19;20049;-65
2022/01/16 06:04:37;;;;;;;45.78;26.75;;;;;;;-1.72;92.71;101445.38;7393428;19;20039;-65
2022/01/16 06:07:05;;;;;;;43.38;24.15;;;;;;;-1.71;92.63;101438.50;7393637;19;20014;-63
2022/01/16 06:09:36;;;;;;;46.95;25.13;;;;;;;-1.71;92.91;101439.38;7395536;19;20078;-63
2022/01/16 06:12:05;;;;;;;47.83;25.17;;;;;;;-1.69;92.76;101436.91;7395135;19;20006;-64
2022/01/16 06:14:33;;;;;;;48.58;24.73;;;;;;;-1.69;92.78;101430.03;7394656;19;20011;-64
2022/01/16 06:17:02;;;;;;;40.55;24.30;;;;;;;-1.68;92.87;101428.34;7393390;19;20018;-64
2022/01/16 06:19:30;;;;;;;42.80;24.67;;;;;;;-1.70;93.08;101430.00;7394658;19;20022;-64
2022/01/16 06:21:58;;;;;;;46.10;24.52;;;;;;;-1.70;93.06;101430.00;7394338;19;20015;-64
2022/01/16 06:24:26;;;;;;;40.65;24.50;;;;;;;-1.70;92.90;101419.69;7392941;19;20011;-64
2022/01/16 06:26:57;;;;;;;41.00;24.48;;;;;;;-1.69;93.07;101416.31;7393105;19;20018;-64
2022/01/16 06:29:27;;;;;;;45.60;24.25;;;;;;;-1.71;93.05;101421.38;7391659;19;20036;-64
2022/01/16 06:31:55;;;;;;;46.88;24.58;;;;;;;-1.71;93.16;101423.94;7394510;19;20014;-64
2022/01/16 06:34:23;;;;;;;45.47;26.38;;;;;;;-1.71;93.26;101425.66;7394311;19;20015;-64
2022/01/16 06:36:51;;;;;;;47.35;25.77;;;;;;;-1.71;93.34;101434.22;7392921;19;20019;-64
2022/01/16 06:39:19;;;;;;;45.35;24.13;;;;;;;-1.71;93.34;101423.06;7393747;19;20788;-64
2022/01/16 06:41:48;;;;;;;47.50;26.08;;;;;;;-1.70;93.52;101430.00;7394311;19;20368;-63
2022/01/16 06:44:19;;;;;;;45.00;25.95;;;;;;;-1.69;93.52;101429.16;7400056;19;20040;-63
2022/01/16 06:46:47;;;;;;;43.72;25.48;;;;;;;-1.69;93.88;101427.47;7400121;19;20047;-64
2022/01/16 06:49:15;;;;;;;50.58;26.48;;;;;;;-1.67;93.90;101436.13;7401091;19;20018;-63
2022/01/16 06:51:43;;;;;;;52.25;27.83;;;;;;;-1.69;94.15;101436.91;7400644;19;20475;-64
2022/01/16 06:54:12;;;;;;;56.97;28.80;;;;;;;-1.63;94.17;101450.00;7400299;19;20509;-63
2022/01/16 06:56:40;;;;;;;50.28;28.10;;;;;;;-1.60;94.15;101449.25;7399127;19;20508;-64
2022/01/16 06:59:08;;;;;;;52.33;27.50;;;;;;;-1.58;94.14;101445.91;7400800;19;20038;-63
2022/01/16 07:01:39;;;;;;;56.28;29.90;;;;;;;-1.56;94.33;101454.56;7400580;19;20036;-64
2022/01/16 07:04:07;;;;;;;55.25;30.75;;;;;;;-1.54;94.75;101452.94;7399967;19;20019;-64
2022/01/16 07:06:57;;;;;;;60.05;30.85;;;;;;;-1.52;94.72;101440.97;7398457;19;20026;-63
2022/01/16 07:09:25;;;;;;;58.05;29.88;;;;;;;-1.50;95.11;101454.78;7400312;19;20352;-63
2022/01/16 07:11:53;;;;;;;61.28;32.40;;;;;;;-1.46;95.14;101457.50;7399816;19;20501;-64
2022/01/16 07:14:21;;;;;;;66.38;33.88;;;;;;;-1.44;94.87;101448.13;7399858;19;20518;-62
2022/01/16 07:16:52;;;;;;;60.45;31.30;;;;;;;-1.42;94.69;101452.50;7398696;19;20374;-64
2022/01/16 07:19:20;;;;;;;61.55;31.95;;;;;;;-1.38;94.62;101458.66;7400928;19;20018;-63
2022/01/16 07:21:48;;;;;;;66.10;32.35;;;;;;;-1.35;94.90;101469.97;7399871;19;20010;-65
2022/01/16 07:24:18;;;;;;;61.17;31.60;;;;;;;-1.34;94.86;101460.53;7398830;19;20010;-65
2022/01/16 07:26:46;;;;;;;61.25;31.77;;;;;;;-1.33;94.87;101463.19;7398448;19;20018;-64
2022/01/16 07:29:21;;;;;;;61.85;33.30;;;;;;;-1.32;94.93;101472.63;7397371;19;20032;-64
2022/01/16 07:31:59;;;;;;;61.50;30.85;;;;;;;-1.30;95.01;101472.72;7400009;19;20010;-65
2022/01/16 07:34:27;;;;;;;67.40;32.03;;;;;;;-1.29;94.86;101471.00;7399929;19;20026;-65
2022/01/16 07:36:56;;;;;;;63.10;31.23;;;;;;;-1.29;94.94;101461.56;7397607;19;20487;-63
2022/01/16 07:39:24;;;;;;;69.50;32.30;;;;;;;-1.27;95.12;101466.81;7398875;19;20134;-65
2022/01/16 07:41:52;;;;;;;60.05;29.95;;;;;;;-1.27;94.96;101477.97;7399057;19;20014;-64
2022/01/16 07:44:20;;;;;;;67.70;32.58;;;;;;;-1.25;94.93;101481.50;7397843;19;20518;-65
2022/01/16 07:46:48;;;;;;;67.75;31.35;;;;;;;-1.24;95.28;101485.84;7397802;19;20018;-64
2022/01/16 07:49:19;;;;;;;69.18;31.98;;;;;;;-1.22;95.01;101491.03;7398661;19;20369;-65
2022/01/16 07:51:47;;;;;;;63.45;30.08;;;;;;;-1.20;95.10;101489.38;7399404;19;20019;-64
2022/01/16 07:54:16;;;;;;;65.63;30.05;;;;;;;-1.20;95.27;101485.13;7397047;19;20037;-65
2022/01/16 07:56:44;;;;;;;61.55;29.38;;;;;;;-1.18;94.91;101487.75;7397554;19;20023;-64
2022/01/16 07:59:12;;;;;;;68.90;31.20;;;;;;;-1.18;95.44;101498.91;7398634;19;20360;-64
2022/01/16 08:01:40;;;;;;;64.55;29.95;;;;;;;-1.17;95.55;101489.50;7398577;19;20011;-62
2022/01/16 08:04:08;;;;;;;73.05;29.65;;;;;;;-1.16;95.21;101476.69;7397772;19;20007;-64
2022/01/16 08:06:39;;;;;;;67.07;27.60;;;;;;;-1.13;95.78;101495.66;7397074;19;20479;-64
2022/01/16 08:09:07;;;;;;;64.13;29.88;;;;;;;-1.12;95.72;101500.88;7398690;19;20010;-64
2022/01/16 08:11:36;;;;;;;68.00;28.40;;;;;;;-1.10;95.70;101499.25;7398817;19;20045;-64
2022/01/16 08:14:04;;;;;;;63.60;27.73;;;;;;;-1.08;95.67;101500.16;7398227;19;20035;-62
2022/01/16 08:16:32;;;;;;;63.20;27.08;;;;;;;-1.07;96.11;101506.22;7397430;19;20018;-64
2022/01/16 08:19:00;;;;;;;59.30;24.13;;;;;;;-1.05;96.08;101522.56;7398426;19;20015;-64
2022/01/16 08:21:28;;;;;;;68.72;28.85;;;;;;;-1.02;96.07;101512.41;7398020;19;20052;-63
2022/01/16 08:24:03;;;;;;;67.57;28.70;;;;;;;-1.00;95.95;101503.03;7397612;19;20011;-64
2022/01/16 08:26:31;;;;;;;67.85;27.75;;;;;;;-0.98;96.38;101499.69;7397230;19;20037;-63
2022/01/16 08:29:00;;;;;;;64.78;27.60;;;;;;;-0.95;96.26;101490.31;7396498;19;20010;-63
2022/01/16 08:31:28;;;;;;;63.03;26.25;;;;;;;-0.93;96.39;101486.97;7397680;19;20028;-64
2022/01/16 08:33:56;;;;;;;72.30;31.35;;;;;;;-0.89;96.79;101490.56;7397470;19;20032;-64
2022/01/16 08:36:25;;;;;;;66.72;29.08;;;;;;;-0.87;96.57;101481.19;7396542;19;20015;-64
2022/01/16 08:38:54;;;;;;;71.70;29.38;;;;;;;-0.85;96.63;101480.44;7397815;19;20040;-64
2022/01/16 08:41:25;;;;;;;66.60;27.92;;;;;;;-0.81;96.78;101483.97;7397981;19;20037;-64
2022/01/16 08:43:54;;;;;;;66.18;28.75;;;;;;;-0.77;96.82;101466.94;7397570;19;20019;-64
2022/01/16 08:46:23;;;;;;;72.45;27.27;;;;;;;-0.73;96.57;101448.19;7395730;19;20034;-64
2022/01/16 08:48:51;;;;;;;65.63;28.10;;;;;;;-0.69;96.63;101450.91;7396326;19;20379;-64
2022/01/16 08:51:21;;;;;;;65.57;29.05;;;;;;;-0.65;96.56;101454.50;7395869;19;20366;-63
2022/01/16 08:53:49;;;;;;;65.40;27.67;;;;;;;-0.61;96.85;101440.88;7396603;19;20182;-64
2022/01/16 08:56:18;;;;;;;69.45;27.70;;;;;;;-0.58;96.74;101429.78;7395516;19;20029;-64
2022/01/16 08:58:49;;;;;;;69.75;28.17;;;;;;;-0.54;96.52;101434.25;7396257;19;20022;-64
2022/01/16 09:01:17;;;;;;;65.95;28.90;;;;;;;-0.51;96.73;101431.78;7395999;19;20430;-64
2022/01/16 09:03:47;;;;;;;65.72;26.95;;;;;;;-0.47;96.35;101431.03;7396608;19;20019;-64
2022/01/16 09:06:15;;;;;;;65.78;28.98;;;;;;;-0.43;96.65;101421.72;7394188;19;20019;-64
2022/01/16 09:08:43;;;;;;;59.38;26.17;;;;;;;-0.40;96.41;101419.25;7395918;19;20487;-64
2022/01/16 09:11:11;;;;;;;66.28;27.77;;;;;;;-0.38;96.38;101430.50;7395760;19;20483;-64
2022/01/16 09:13:40;;;;;;;61.78;26.30;;;;;;;-0.35;96.67;101433.19;7395654;19;20482;-65
2022/01/16 09:16:11;;;;;;;57.70;25.73;;;;;;;-0.34;96.82;101433.22;7395776;19;20385;-63
2022/01/16 09:18:40;;;;;;;56.28;26.25;;;;;;;-0.31;96.73;101429.00;7396496;19;20014;-64
2022/01/16 09:21:08;;;;;;;52.47;24.63;;;;;;;-0.29;96.71;101428.25;7395775;19;20015;-64
2022/01/16 09:23:38;;;;;;;53.15;24.55;;;;;;;-0.26;96.72;101428.34;7395450;19;20015;-64
2022/01/16 09:26:06;;;;;;;56.42;26.67;;;;;;;-0.25;96.87;101422.34;7393915;19;20550;-64
2022/01/16 09:28:34;;;;;;;59.30;26.08;;;;;;;-0.23;96.67;101418.13;7394375;19;20002;-64
2022/01/16 09:31:02;;;;;;;53.80;25.23;;;;;;;-0.20;97.01;101419.94;7395818;19;20036;-63
2022/01/16 09:33:34;;;;;;;54.00;23.85;;;;;;;-0.18;96.89;101411.44;7395622;19;20011;-65
2022/01/16 09:36:03;;;;;;;51.20;24.52;;;;;;;-0.14;96.96;101416.66;7395246;19;20035;-63
2022/01/16 09:38:31;;;;;;;55.65;25.42;;;;;;;-0.10;96.67;101418.50;7395470;19;20036;-63
2022/01/16 09:40:59;;;;;;;53.75;26.35;;;;;;;-0.07;96.80;101422.06;7395237;19;20014;-66
2022/01/16 09:43:28;;;;;;;53.00;27.02;;;;;;;-0.03;97.01;101415.31;7395266;19;20015;-64
2022/01/16 09:45:56;;;;;;;58.00;27.35;;;;;;;0.02;97.01;101421.50;7393945;19;20040;-67
2022/01/16 09:48:24;;;;;;;54.28;26.95;;;;;;;0.06;97.10;101428.50;7394665;19;20483;-64
2022/01/16 09:50:55;;;;;;;51.50;25.58;;;;;;;0.11;97.00;101421.78;7395297;19;20028;-64
2022/01/16 09:53:23;;;;;;;53.53;26.17;;;;;;;0.14;96.78;101429.66;7395349;19;20011;-64
2022/01/16 09:55:52;;;;;;;50.17;26.00;;;;;;;0.19;96.71;101431.50;7394813;19;20053;-64
2022/01/16 09:58:22;;;;;;;50.42;24.08;;;;;;;0.21;96.42;101435.00;7395082;19;20015;-64
2022/01/16 10:00:51;;;;;;;48.33;25.20;;;;;;;0.26;96.56;101434.31;7394969;19;20011;-64
2022/01/16 10:03:38;;;;;;;48.00;23.55;;;;;;;0.29;96.52;101431.84;7394854;19;20007;-66
2022/01/16 10:06:20;;;;;;;44.47;22.50;;;;;;;0.32;96.60;101431.06;7392981;19;20376;-61
2022/01/16 10:08:50;;;;;;;46.92;23.40;;;;;;;0.34;96.90;101419.06;7395169;19;20022;-61
2022/01/16 10:11:23;;;;;;;43.33;22.27;;;;;;;0.43;97.62;101419.34;7394616;19;20022;-65
2022/01/16 10:13:58;;;;;;;46.83;25.27;;;;;;;0.48;96.43;101425.53;7395144;19;20017;-66
2022/01/16 10:16:31;;;;;;;42.30;23.25;;;;;;;0.51;96.25;101435.09;7393867;19;20019;-66
2022/01/16 10:19:00;;;;;;;39.78;20.67;;;;;;;0.52;95.91;101447.16;7402470;19;20014;-65
2022/01/16 10:21:40;;;;;;;38.10;20.80;;;;;;;0.50;95.70;101442.78;7402306;19;20033;-64
2022/01/16 10:24:19;;;;;;;38.80;19.77;;;;;;;0.51;95.68;101450.56;7402955;19;20033;-65
2022/01/16 10:26:48;;;;;;;37.35;19.15;;;;;;;0.51;95.67;101444.56;7400100;19;20014;-66
2022/01/16 10:29:18;;;;;;;38.13;20.90;;;;;;;0.52;95.84;101454.91;7399797;19;20468;-69
2022/01/16 10:31:46;;;;;;;40.22;20.23;;;;;;;0.54;96.00;101442.03;7402495;19;20086;-65
2022/01/16 10:34:31;;;;;;;40.15;18.33;;;;;;;0.53;95.67;101448.94;7401457;19;20011;-66
2022/01/16 10:37:02;;;;;;;42.47;21.42;;;;;;;0.56;95.74;101446.44;7400387;19;20018;-67
2022/01/16 10:39:30;;;;;;;39.78;19.92;;;;;;;0.59;95.81;101435.31;7402129;19;20015;-66
2022/01/16 10:42:14;;;;;;;40.20;19.67;;;;;;;0.61;95.96;101438.81;7401710;19;20036;-65
2022/01/16 10:44:42;;;;;;;41.80;19.10;;;;;;;0.63;96.04;101437.16;7400439;19;20479;-67
2022/01/16 10:47:28;;;;;;;41.03;21.08;;;;;;;0.64;95.96;101456.97;7399465;19;20018;-66
2022/01/16 10:50:02;;;;;;;42.45;21.67;;;;;;;0.61;95.64;101454.31;7401186;19;20015;-65
2022/01/16 10:52:33;;;;;;;40.60;21.13;;;;;;;0.68;95.89;101466.56;7401098;19;20015;-66
2022/01/16 10:55:10;;;;;;;50.65;23.92;;;;;;;0.70;95.94;101467.50;7401333;19;20434;-66
2022/01/16 10:57:39;;;;;;;44.40;21.75;;;;;;;0.71;95.94;101458.94;7398381;19;20018;-66
2022/01/16 11:00:13;;;;;;;41.83;20.90;;;;;;;0.74;96.04;101448.69;7400737;19;20036;-66
2022/01/16 11:02:43;;;;;;;38.42;20.52;;;;;;;0.76;95.78;101465.09;7401007;19;20216;-66
2022/01/16 11:05:14;;;;;;;41.13;22.42;;;;;;;0.78;95.89;101466.03;7399922;19;20046;-66
2022/01/16 11:07:46;;;;;;;40.83;21.52;;;;;;;0.79;95.62;101465.19;7398028;19;20014;-66
2022/01/16 11:10:31;;;;;;;39.72;20.90;;;;;;;0.80;95.58;101460.91;7400236;19;20373;-65
2022/01/16 11:13:01;;;;;;;37.28;20.38;;;;;;;0.83;95.67;101460.13;7400680;19;20010;-66
2022/01/16 11:15:31;;;;;;;40.63;19.80;;;;;;;0.86;95.36;101455.03;7400075;19;20019;-66
2022/01/16 11:18:00;;;;;;;42.55;21.08;;;;;;;0.88;95.64;101455.97;7398171;19;20022;-64
2022/01/16 11:20:33;;;;;;;36.92;20.17;;;;;;;0.92;95.57;101447.47;7400070;19;20019;-65
2022/01/16 11:23:14;;;;;;;34.15;20.45;;;;;;;0.95;94.96;101447.59;7400235;19;20018;-65
2022/01/16 11:25:43;;;;;;;33.47;18.70;;;;;;;0.94;94.81;101440.66;7399190;19;20015;-66
2022/01/16 11:28:18;;;;;;;30.35;18.15;;;;;;;1.00;94.64;101439.94;7396868;19;20407;-65
2022/01/16 11:30:49;;;;;;;32.15;18.25;;;;;;;1.02;94.58;101444.31;7399130;19;20017;-65
2022/01/16 11:33:17;;;;;;;29.38;17.05;;;;;;;1.05;94.59;101457.34;7400141;19;20018;-65
2022/01/16 11:35:49;;;;;;;29.98;17.85;;;;;;;1.09;94.64;101464.34;7399148;19;20014;-65
2022/01/16 11:38:21;;;;;;;27.80;17.10;;;;;;;1.12;94.32;101469.59;7399854;19;20014;-65
2022/01/16 11:40:51;;;;;;;30.50;17.38;;;;;;;1.16;94.62;101462.81;7399101;19;20371;-66
2022/01/16 11:43:32;;;;;;;29.50;17.50;;;;;;;1.15;93.23;101474.00;7399899;19;20078;-65
2022/01/16 11:46:13;;;;;;;30.48;18.42;;;;;;;1.18;93.25;101471.50;7399222;19;20022;-66
2022/01/16 11:49:05;;;;;;;29.13;17.58;;;;;;;1.16;92.32;101482.63;7399724;19;20015;-65
2022/01/16 11:52:02;;;;;;;28.52;16.80;;;;;;;1.18;92.45;101470.63;7399258;19;20018;-65
2022/01/16 11:54:40;;;;;;;29.75;18.52;;;;;;;1.20;92.42;101474.13;7399219;19;20032;-65
2022/01/16 11:57:20;;;;;;;32.25;19.55;;;;;;;1.21;92.11;101493.97;7397547;19;20025;-64
2022/01/16 11:59:49;;;;;;;29.83;18.83;;;;;;;1.21;91.83;101483.63;7399518;19;20010;-65
2022/01/16 12:02:25;;;;;;;28.48;19.00;;;;;;;1.25;91.89;101485.47;7398469;19;20037;-65
2022/01/16 12:05:00;;;;;;;33.97;20.45;;;;;;;1.26;91.89;101490.69;7398829;19;20014;-65
2022/01/16 12:07:46;;;;;;;31.48;19.73;;;;;;;1.29;91.61;101485.59;7397371;19;20018;-65
2022/01/16 12:10:44;;;;;;;32.75;20.58;;;;;;;1.32;92.02;101471.88;7397369;19;20416;-64